createdAt,value
2022-09-17T00:02:00.627Z,50.25
2022-09-17T00:04:04.382Z,50.21
2022-09-17T00:06:09.209Z,50.22
2022-09-17T00:08:15.066Z,50.32
2022-09-17T00:10:17.251Z,50.18
2022-09-17T00:12:18.993Z,50.26
2022-09-17T00:14:20.648Z,50.15
2022-09-17T00:16:34.652Z,50.23
2022-09-17T00:18:40.695Z,50.36
2022-09-17T00:20:45.194Z,50.34
2022-09-17T00:22:46.930Z,50.35
2022-09-17T00:24:48.402Z,50.41
2022-09-17T00:26:50.345Z,50.42
2022-09-17T00:28:59.033Z,50.57
2022-09-17T00:31:00.725Z,50.36
2022-09-17T00:33:02.423Z,50.41
2022-09-17T00:35:04.432Z,50.54
2022-09-17T00:37:05.989Z,50.78
2022-09-17T00:39:10.670Z,50.67
2022-09-17T00:41:14.790Z,50.60
2022-09-17T00:43:34.104Z,50.64
2022-09-17T00:45:36.161Z,50.54
2022-09-17T00:47:42.422Z,50.65
2022-09-17T00:49:44.838Z,50.71
2022-09-17T00:52:00.325Z,50.78
2022-09-17T00:54:07.114Z,50.78
2022-09-17T00:56:19.375Z,50.69
2022-09-17T00:58:22.729Z,50.70
2022-09-17T01:00:25.166Z,50.73
2022-09-17T01:02:27.104Z,50.70
2022-09-17T01:04:28.845Z,50.77
2022-09-17T01:06:48.527Z,50.79
2022-09-17T01:09:15.223Z,50.96
2022-09-17T01:11:27.190Z,50.78
2022-09-17T01:13:40.751Z,50.88
2022-09-17T01:15:55.247Z,51.11
2022-09-17T01:18:05.094Z,50.80
2022-09-17T01:20:12.567Z,51.10
2022-09-17T01:22:33.891Z,51.01
2022-09-17T01:25:06.783Z,51.10
2022-09-17T01:27:56.468Z,51.13
2022-09-17T01:30:26.791Z,51.19
2022-09-17T01:32:53.430Z,51.27
2022-09-17T01:35:15.408Z,51.34
2022-09-17T01:37:34.663Z,51.49
2022-09-17T01:40:19.805Z,51.36
2022-09-17T01:42:32.364Z,51.36
2022-09-17T01:44:52.728Z,51.37
2022-09-17T01:47:05.162Z,51.51
2022-09-17T01:49:12.598Z,51.50
2022-09-17T01:51:24.472Z,51.59
2022-09-17T01:53:34.139Z,51.63
2022-09-17T01:55:40.504Z,51.59
2022-09-17T01:58:00.347Z,51.78
2022-09-17T02:00:13.853Z,51.75
2022-09-17T02:02:24.185Z,51.45
2022-09-17T02:04:34.712Z,51.76
2022-09-17T02:06:40.537Z,51.59
2022-09-17T02:08:49.309Z,51.62
2022-09-17T02:11:07.642Z,51.81
2022-09-17T02:13:18.403Z,51.77
2022-09-17T02:15:25.597Z,51.68
2022-09-17T02:17:35.265Z,51.71
2022-09-17T02:19:40.623Z,51.92
2022-09-17T02:22:00.093Z,51.78
2022-09-17T02:24:09.937Z,51.60
2022-09-17T02:26:16.170Z,51.66
2022-09-17T02:28:27.353Z,51.75
2022-09-17T02:30:29.929Z,51.65
2022-09-17T02:32:31.617Z,51.56
2022-09-17T02:34:34.706Z,51.60
2022-09-17T02:36:36.295Z,51.43
2022-09-17T02:38:41.444Z,51.71
2022-09-17T02:40:50.331Z,51.75
2022-09-17T02:43:12.737Z,51.73
2022-09-17T02:45:46.498Z,51.84
2022-09-17T02:48:08.579Z,52.07
2022-09-17T02:50:33.482Z,51.78
2022-09-17T02:53:00.729Z,51.81
2022-09-17T02:55:29.132Z,52.28
2022-09-17T02:58:01.937Z,51.89
2022-09-17T03:00:15.030Z,51.93
2022-09-17T03:02:22.716Z,51.94
2022-09-17T03:04:27.526Z,51.97
2022-09-17T03:06:29.774Z,51.96
2022-09-17T03:08:38.158Z,51.90
2022-09-17T03:10:40.255Z,51.69
2022-09-17T03:12:42.008Z,51.84
2022-09-17T03:14:43.839Z,51.99
2022-09-17T03:16:45.412Z,51.76
2022-09-17T03:18:47.053Z,51.99
2022-09-17T03:20:54.430Z,52.07
2022-09-17T03:22:56.095Z,52.01
2022-09-17T03:24:57.755Z,51.73
2022-09-17T03:26:59.432Z,51.84
2022-09-17T03:29:01.846Z,51.92
2022-09-17T03:31:04.220Z,51.72
2022-09-17T03:33:06.276Z,51.81
2022-09-17T03:35:08.322Z,51.93
2022-09-17T03:37:09.970Z,51.90
2022-09-17T03:39:11.959Z,51.95
2022-09-17T03:41:13.685Z,51.85
2022-09-17T03:43:15.133Z,51.88
2022-09-17T03:45:16.907Z,51.97
2022-09-17T03:47:18.412Z,51.99
2022-09-17T03:49:20.035Z,52.05
2022-09-17T03:51:21.741Z,51.99
2022-09-17T03:53:23.674Z,51.93
2022-09-17T03:55:27.439Z,52.03
2022-09-17T03:57:29.019Z,51.91
2022-09-17T03:59:31.637Z,51.89
2022-09-17T04:01:33.393Z,51.92
2022-09-17T04:03:34.953Z,52.00
2022-09-17T04:05:36.620Z,51.98
2022-09-17T04:07:41.102Z,51.94
2022-09-17T04:09:42.697Z,51.93
2022-09-17T04:11:47.485Z,52.08
2022-09-17T04:13:49.364Z,52.16
2022-09-17T04:15:52.386Z,52.00
2022-09-17T04:17:58.097Z,52.41
2022-09-17T04:19:59.967Z,52.19
2022-09-17T04:22:01.464Z,52.15
2022-09-17T04:24:03.051Z,52.13
2022-09-17T04:26:04.881Z,52.22
2022-09-17T04:28:08.295Z,52.15
2022-09-17T04:30:12.923Z,52.07
2022-09-17T04:32:15.929Z,52.16
2022-09-17T04:34:17.399Z,52.26
2022-09-17T04:36:19.430Z,52.15
2022-09-17T04:38:23.610Z,52.39
2022-09-17T04:40:26.659Z,51.99
2022-09-17T04:42:28.237Z,52.18
2022-09-17T04:44:32.768Z,52.27
2022-09-17T04:46:34.398Z,52.29
2022-09-17T04:48:36.018Z,52.26
2022-09-17T04:50:37.770Z,52.35
2022-09-17T04:52:43.620Z,52.44
2022-09-17T04:54:46.604Z,52.38
2022-09-17T04:56:48.322Z,52.21
2022-09-17T04:58:49.779Z,52.55
2022-09-17T05:00:52.628Z,52.52
2022-09-17T05:02:57.622Z,52.94
2022-09-17T05:04:59.866Z,52.64
2022-09-17T05:07:01.452Z,52.64
2022-09-17T05:09:03.194Z,52.61
2022-09-17T05:11:05.572Z,52.55
2022-09-17T05:13:07.166Z,52.71
2022-09-17T05:15:08.983Z,52.71
2022-09-17T05:17:15.004Z,52.87
2022-09-17T05:19:16.598Z,52.65
2022-09-17T05:21:24.395Z,53.06
2022-09-17T05:23:25.933Z,52.92
2022-09-17T05:25:27.682Z,52.66
2022-09-17T05:27:32.512Z,52.58
2022-09-17T05:29:34.071Z,53.19
2022-09-17T05:31:35.869Z,53.06
2022-09-17T05:33:38.699Z,52.98
2022-09-17T05:35:44.690Z,53.10
2022-09-17T05:37:46.349Z,52.98
2022-09-17T05:39:47.948Z,52.84
2022-09-17T05:41:49.364Z,52.87
2022-09-17T05:43:51.417Z,53.02
2022-09-17T05:45:55.589Z,53.12
2022-09-17T05:47:58.484Z,53.12
2022-09-17T05:50:00.838Z,53.13
2022-09-17T05:52:05.604Z,53.13
2022-09-17T05:54:07.780Z,53.24
2022-09-17T05:56:09.344Z,53.10
2022-09-17T05:58:19.039Z,53.41
2022-09-17T06:00:20.693Z,53.39
2022-09-17T06:02:30.998Z,53.08
2022-09-17T06:04:34.846Z,53.64
2022-09-17T06:06:39.027Z,53.46
2022-09-17T06:08:44.469Z,53.44
2022-09-17T06:10:46.228Z,53.51
2022-09-17T06:12:47.811Z,53.44
2022-09-17T06:14:49.516Z,53.58
2022-09-17T06:16:51.390Z,53.70
2022-09-17T06:18:54.422Z,53.48
2022-09-17T06:21:00.866Z,53.55
2022-09-17T06:23:02.371Z,53.66
2022-09-17T06:25:04.496Z,53.64
2022-09-17T06:27:06.223Z,53.60
2022-09-17T06:29:07.876Z,53.55
2022-09-17T06:31:11.227Z,53.77
2022-09-17T06:33:12.915Z,53.92
2022-09-17T06:35:14.564Z,53.89
2022-09-17T06:37:16.688Z,54.00
2022-09-17T06:39:18.309Z,54.13
2022-09-17T06:41:20.103Z,53.93
2022-09-17T06:43:27.167Z,53.93
2022-09-17T06:45:29.227Z,54.08
2022-09-17T06:47:33.811Z,54.04
2022-09-17T06:49:36.546Z,54.04
2022-09-17T06:51:40.429Z,54.05
2022-09-17T06:53:42.161Z,54.08
2022-09-17T06:55:43.859Z,54.11
2022-09-17T06:57:48.605Z,54.28
2022-09-17T06:59:50.885Z,54.30
2022-09-17T07:01:52.755Z,54.33
2022-09-17T07:03:57.114Z,54.36
2022-09-17T07:05:59.675Z,54.22
2022-09-17T07:08:05.371Z,54.59
2022-09-17T07:10:07.798Z,54.26
2022-09-17T07:12:09.582Z,54.34
2022-09-17T07:14:11.564Z,54.46
2022-09-17T07:16:13.491Z,54.45
2022-09-17T07:18:17.130Z,54.52
2022-09-17T07:20:18.879Z,54.64
2022-09-17T07:22:20.533Z,54.55
2022-09-17T07:24:22.344Z,54.82
2022-09-17T07:26:23.976Z,54.77
2022-09-17T07:28:27.156Z,54.59
2022-09-17T07:30:29.352Z,54.64
2022-09-17T07:32:31.510Z,54.87
2022-09-17T07:34:33.671Z,54.76
2022-09-17T07:36:35.453Z,54.97
2022-09-17T07:38:37.048Z,54.84
2022-09-17T07:40:38.759Z,54.70
2022-09-17T07:42:40.773Z,54.67
2022-09-17T07:44:42.395Z,54.73
2022-09-17T07:46:44.053Z,54.69
2022-09-17T07:48:46.902Z,54.83
2022-09-17T07:50:48.698Z,54.86
2022-09-17T07:52:50.907Z,54.82
2022-09-17T07:54:52.752Z,54.71
2022-09-17T07:56:54.529Z,54.61
2022-09-17T07:58:56.393Z,55.00
2022-09-17T08:01:09.862Z,55.05
2022-09-17T08:03:11.491Z,54.86
2022-09-17T08:05:13.708Z,54.83
2022-09-17T08:07:17.076Z,54.53
2022-09-17T08:09:20.657Z,54.84
2022-09-17T08:11:51.638Z,54.85
2022-09-17T08:13:51.243Z,54.80
2022-09-17T08:15:52.854Z,54.71
2022-09-17T08:17:54.923Z,54.58
2022-09-17T08:19:57.363Z,54.74
2022-09-17T08:22:00.267Z,54.80
2022-09-17T08:24:02.535Z,54.74
2022-09-17T08:26:07.162Z,54.75
2022-09-17T08:28:09.159Z,54.85
2022-09-17T08:30:10.927Z,54.48
2022-09-17T08:32:12.634Z,54.66
2022-09-17T08:34:14.401Z,54.85
2022-09-17T08:36:17.982Z,55.02
2022-09-17T08:38:20.995Z,55.02
2022-09-17T08:40:23.274Z,55.10
2022-09-17T08:42:37.403Z,55.15
2022-09-17T08:44:42.608Z,54.73
2022-09-17T08:46:50.780Z,55.20
2022-09-17T08:49:20.240Z,55.19
2022-09-17T08:51:55.545Z,55.08
2022-09-17T08:54:17.819Z,55.14
2022-09-17T08:56:21.587Z,55.09
2022-09-17T08:58:46.232Z,55.14
2022-09-17T09:00:50.539Z,55.11
2022-09-17T09:03:13.887Z,55.12
2022-09-17T09:05:22.907Z,55.29
2022-09-17T09:07:32.084Z,55.04
2022-09-17T09:09:43.855Z,55.14
2022-09-17T09:11:48.260Z,54.88
2022-09-17T09:13:55.392Z,54.72
2022-09-17T09:16:02.427Z,54.62
2022-09-17T09:18:19.749Z,54.53
2022-09-17T09:20:48.209Z,54.51
2022-09-17T09:22:52.483Z,54.56
2022-09-17T09:25:14.357Z,54.96
2022-09-17T09:27:18.815Z,54.75
2022-09-17T09:29:42.282Z,55.21
2022-09-17T09:32:16.530Z,55.15
2022-09-17T09:34:19.596Z,55.12
2022-09-17T09:36:22.168Z,55.08
2022-09-17T09:38:43.535Z,55.57
2022-09-17T09:40:51.410Z,55.46
2022-09-17T09:42:55.512Z,55.07
2022-09-17T09:45:04.781Z,54.96
2022-09-17T09:47:09.952Z,55.02
2022-09-17T09:49:29.824Z,54.95
2022-09-17T09:51:58.984Z,54.90
2022-09-17T09:54:29.517Z,54.73
2022-09-17T09:56:50.960Z,54.60
2022-09-17T09:58:52.516Z,54.42
2022-09-17T10:00:54.094Z,54.54
2022-09-17T10:03:26.347Z,54.63
2022-09-17T10:05:28.568Z,54.38
2022-09-17T10:07:30.401Z,53.70
2022-09-17T10:09:44.231Z,53.74
2022-09-17T10:12:02.598Z,52.91
2022-09-17T10:14:23.179Z,52.77
2022-09-17T10:16:27.723Z,52.34
2022-09-17T10:18:29.327Z,52.74
2022-09-17T10:20:31.044Z,52.42
2022-09-17T10:22:35.225Z,52.30
2022-09-17T10:24:39.289Z,51.96
2022-09-17T10:26:41.038Z,51.28
2022-09-17T10:28:57.315Z,50.95
2022-09-17T10:31:08.944Z,50.80
2022-09-17T10:33:24.950Z,50.26
2022-09-17T10:35:33.987Z,50.52
2022-09-17T10:37:47.525Z,49.96
2022-09-17T10:39:49.268Z,50.30
2022-09-17T10:41:59.621Z,49.83
2022-09-17T10:44:17.725Z,49.86
2022-09-17T10:46:29.389Z,50.37
2022-09-17T10:48:38.702Z,50.45
2022-09-17T10:50:40.382Z,50.64
2022-09-17T10:52:48.764Z,50.81
2022-09-17T10:55:06.255Z,51.05
2022-09-17T10:57:20.513Z,50.21
2022-09-17T11:00:04.578Z,49.21
2022-09-17T11:02:12.146Z,49.21
2022-09-17T11:05:00.245Z,48.69
2022-09-17T11:07:34.651Z,49.06
2022-09-17T11:09:56.960Z,49.02
2022-09-17T11:12:19.529Z,48.99
2022-09-17T11:14:39.237Z,48.60
2022-09-17T11:16:57.737Z,49.06
2022-09-17T11:19:11.831Z,48.63
2022-09-17T11:21:22.236Z,48.36
2022-09-17T11:23:54.080Z,47.98
2022-09-17T11:26:00.889Z,47.83
2022-09-17T11:28:23.269Z,47.87
2022-09-17T11:30:29.530Z,48.05
2022-09-17T11:32:46.310Z,48.07
2022-09-17T11:35:03.402Z,47.05
2022-09-17T11:37:12.331Z,47.23
2022-09-17T11:39:24.706Z,47.40
2022-09-17T11:41:40.336Z,47.54
2022-09-17T11:44:23.370Z,47.57
2022-09-17T11:46:30.697Z,48.09
2022-09-17T11:49:03.877Z,48.60
2022-09-17T11:51:29.093Z,48.24
2022-09-17T11:53:37.901Z,48.77
2022-09-17T11:56:02.930Z,48.65
2022-09-17T11:58:31.213Z,48.37
2022-09-17T12:00:40.614Z,48.88
2022-09-17T12:02:52.773Z,48.66
2022-09-17T12:05:10.134Z,48.39
2022-09-17T12:07:36.010Z,48.15
2022-09-17T12:09:41.407Z,48.24
2022-09-17T12:11:53.464Z,47.85
2022-09-17T12:14:04.504Z,47.95
2022-09-17T12:16:12.362Z,48.13
2022-09-17T12:18:38.625Z,47.96
2022-09-17T12:20:45.418Z,47.88
2022-09-17T12:22:50.865Z,47.58
2022-09-17T12:24:53.887Z,47.35
2022-09-17T12:27:09.670Z,46.20
2022-09-17T12:29:24.289Z,45.57
2022-09-17T12:31:53.662Z,45.01
2022-09-17T12:34:26.002Z,44.53
2022-09-17T12:36:40.284Z,44.17
2022-09-17T12:39:29.959Z,44.34
2022-09-17T12:41:47.823Z,44.29
2022-09-17T12:44:30.657Z,43.86
2022-09-17T12:47:09.352Z,43.65
2022-09-17T12:49:26.850Z,43.51
2022-09-17T12:51:52.108Z,43.42
2022-09-17T12:54:10.789Z,43.44
2022-09-17T12:56:45.698Z,43.43
2022-09-17T12:59:02.217Z,43.57
2022-09-17T13:01:07.148Z,43.77
2022-09-17T13:03:11.427Z,43.36
2022-09-17T13:05:13.150Z,43.20
2022-09-17T13:07:26.896Z,42.93
2022-09-17T13:09:28.560Z,43.21
2022-09-17T13:12:03.653Z,43.51
2022-09-17T13:14:25.379Z,43.44
2022-09-17T13:16:43.823Z,43.71
2022-09-17T13:19:16.634Z,44.10
2022-09-17T13:21:34.568Z,44.38
2022-09-17T13:23:41.277Z,44.48
2022-09-17T13:25:52.946Z,44.70
2022-09-17T13:28:09.858Z,44.89
2022-09-17T13:30:13.288Z,45.15
2022-09-17T13:32:33.208Z,45.69
2022-09-17T13:34:37.794Z,46.05
2022-09-17T13:36:56.498Z,46.21
2022-09-17T13:38:59.043Z,46.41
2022-09-17T13:41:21.747Z,46.88
2022-09-17T13:43:27.390Z,46.90
2022-09-17T13:45:29.120Z,47.26
2022-09-17T13:47:36.617Z,47.18
2022-09-17T13:49:45.761Z,47.44
2022-09-17T13:51:49.884Z,47.41
2022-09-17T13:53:54.514Z,47.27
2022-09-17T13:56:01.997Z,47.43
2022-09-17T13:58:32.885Z,47.52
2022-09-17T14:00:56.532Z,47.27
2022-09-17T14:03:48.487Z,47.25
2022-09-17T14:05:50.089Z,46.97
2022-09-17T14:07:53.055Z,46.71
2022-09-17T14:09:54.687Z,46.51
2022-09-17T14:11:56.233Z,46.68
2022-09-17T14:14:11.661Z,46.40
2022-09-17T14:16:42.491Z,46.42
2022-09-17T14:18:48.552Z,46.53
2022-09-17T14:20:50.138Z,46.15
2022-09-17T14:22:56.685Z,46.28
2022-09-17T14:24:58.579Z,46.31
2022-09-17T14:27:17.710Z,46.16
2022-09-17T14:29:43.618Z,46.32
2022-09-17T14:31:47.547Z,45.87
2022-09-17T14:33:49.263Z,46.18
2022-09-17T14:35:55.865Z,45.84
2022-09-17T14:38:07.867Z,45.85
2022-09-17T14:40:18.610Z,45.91
2022-09-17T14:42:35.624Z,45.43
2022-09-17T14:44:37.406Z,45.80
2022-09-17T14:46:43.356Z,45.81
2022-09-17T14:48:48.122Z,45.89
2022-09-17T14:50:52.701Z,45.84
2022-09-17T14:52:54.575Z,45.56
2022-09-17T14:55:40.643Z,45.61
2022-09-17T14:57:44.843Z,45.77
2022-09-17T14:59:59.688Z,45.15
2022-09-17T15:02:01.385Z,45.67
2022-09-17T15:04:22.840Z,45.35
2022-09-17T15:06:27.412Z,45.49
2022-09-17T15:08:30.223Z,45.45
2022-09-17T15:10:32.663Z,45.38
2022-09-17T15:12:35.496Z,45.38
2022-09-17T15:14:41.183Z,45.52
2022-09-17T15:16:50.002Z,45.08
2022-09-17T15:18:57.570Z,45.18
2022-09-17T15:21:01.529Z,45.19
2022-09-17T15:23:25.858Z,45.19
2022-09-17T15:25:31.273Z,45.07
2022-09-17T15:27:45.050Z,45.28
2022-09-17T15:29:54.700Z,44.77
2022-09-17T15:32:04.541Z,44.85
2022-09-17T15:34:06.147Z,45.00
2022-09-17T15:36:16.085Z,45.13
2022-09-17T15:38:23.668Z,44.64
2022-09-17T15:40:39.724Z,44.33
2022-09-17T15:42:50.544Z,44.58
2022-09-17T15:44:52.355Z,44.61
2022-09-17T15:46:56.850Z,44.60
2022-09-17T15:49:01.059Z,44.76
2022-09-17T15:51:04.995Z,44.79
2022-09-17T15:53:09.286Z,44.73
2022-09-17T15:55:31.205Z,43.91
2022-09-17T15:57:35.855Z,44.18
2022-09-17T15:59:37.727Z,44.23
2022-09-17T16:01:45.858Z,44.20
2022-09-17T16:03:58.617Z,43.99
2022-09-17T16:06:04.060Z,44.37
2022-09-17T16:08:18.939Z,43.77
2022-09-17T16:10:20.534Z,44.08
2022-09-17T16:12:27.234Z,43.84
2022-09-17T16:14:31.544Z,44.07
2022-09-17T16:16:35.416Z,43.89
2022-09-17T16:18:36.939Z,44.01
2022-09-17T16:20:38.429Z,44.08
2022-09-17T16:22:40.181Z,43.92
2022-09-17T16:24:41.820Z,44.14
2022-09-17T16:26:43.652Z,44.19
2022-09-17T16:28:48.924Z,44.16
2022-09-17T16:30:50.839Z,44.40
2022-09-17T16:32:53.703Z,44.66
2022-09-17T16:34:55.369Z,44.72
2022-09-17T16:36:56.977Z,44.86
2022-09-17T16:38:59.163Z,45.22
2022-09-17T16:41:05.404Z,45.12
2022-09-17T16:43:08.599Z,45.33
2022-09-17T16:45:10.828Z,45.51
2022-09-17T16:47:12.280Z,45.34
2022-09-17T16:49:17.356Z,45.44
2022-09-17T16:51:22.251Z,45.81
2022-09-17T16:53:23.958Z,45.58
2022-09-17T16:55:25.764Z,45.91
2022-09-17T16:57:29.417Z,45.78
2022-09-17T16:59:31.101Z,46.04
2022-09-17T17:01:32.646Z,46.12
2022-09-17T17:03:34.237Z,46.04
2022-09-17T17:05:36.948Z,46.13
2022-09-17T17:07:38.468Z,46.19
2022-09-17T17:09:40.292Z,46.29
2022-09-17T17:11:41.938Z,46.45
2022-09-17T17:13:44.230Z,46.39
2022-09-17T17:15:46.163Z,46.46
2022-09-17T17:17:48.677Z,46.52
2022-09-17T17:19:50.530Z,46.43
2022-09-17T17:21:53.099Z,46.57
2022-09-17T17:23:55.147Z,46.61
2022-09-17T17:25:57.023Z,46.65
2022-09-17T17:27:59.030Z,46.60
2022-09-17T17:30:06.462Z,46.50
2022-09-17T17:32:08.481Z,46.86
2022-09-17T17:34:13.101Z,46.84
2022-09-17T17:36:14.641Z,46.97
2022-09-17T17:38:19.337Z,46.99
2022-09-17T17:40:21.210Z,47.04
2022-09-17T17:42:22.911Z,47.16
2022-09-17T17:44:24.473Z,47.15
2022-09-17T17:46:26.240Z,47.23
2022-09-17T17:48:28.567Z,47.33
2022-09-17T17:50:30.183Z,47.16
2022-09-17T17:52:31.946Z,47.42
2022-09-17T17:54:33.942Z,47.26
2022-09-17T17:56:35.666Z,47.33
2022-09-17T17:58:37.671Z,47.23
2022-09-17T18:00:41.340Z,47.24
2022-09-17T18:02:43.339Z,47.36
2022-09-17T18:04:45.115Z,47.18
2022-09-17T18:06:49.160Z,47.18
2022-09-17T18:08:50.817Z,47.79
2022-09-17T18:11:04.059Z,47.29
2022-09-17T18:13:05.587Z,47.36
2022-09-17T18:15:07.525Z,47.41
2022-09-17T18:17:09.208Z,47.57
2022-09-17T18:19:13.561Z,47.48
2022-09-17T18:21:20.782Z,47.62
2022-09-17T18:23:22.664Z,47.71
2022-09-17T18:25:24.455Z,47.63
2022-09-17T18:27:25.976Z,47.55
2022-09-17T18:29:29.027Z,47.58
2022-09-17T18:31:36.226Z,47.69
2022-09-17T18:33:40.353Z,47.81
2022-09-17T18:35:42.418Z,47.86
2022-09-17T18:37:44.258Z,47.84
2022-09-17T18:40:01.365Z,47.79
2022-09-17T18:42:03.473Z,48.03
2022-09-17T18:44:05.185Z,47.94
2022-09-17T18:46:07.027Z,48.09
2022-09-17T18:48:09.212Z,48.11
2022-09-17T18:50:10.911Z,48.02
2022-09-17T18:52:12.713Z,48.27
2022-09-17T18:54:14.381Z,48.32
2022-09-17T18:56:33.193Z,48.46
2022-09-17T18:58:34.879Z,48.37
2022-09-17T19:00:40.473Z,48.32
2022-09-17T19:02:42.143Z,48.73
2022-09-17T19:04:43.803Z,48.50
2022-09-17T19:06:45.807Z,48.55
2022-09-17T19:08:47.895Z,48.72
2022-09-17T19:10:52.820Z,48.67
2022-09-17T19:12:54.440Z,48.75
2022-09-17T19:14:55.956Z,48.80
2022-09-17T19:16:57.558Z,48.73
2022-09-17T19:18:59.978Z,48.88
2022-09-17T19:21:17.068Z,48.95
2022-09-17T19:23:18.526Z,49.07
2022-09-17T19:25:20.799Z,49.14
2022-09-17T19:27:22.777Z,49.01
2022-09-17T19:29:24.513Z,49.01
2022-09-17T19:31:26.930Z,49.14
2022-09-17T19:33:29.304Z,49.28
2022-09-17T19:35:33.600Z,49.28
2022-09-17T19:37:35.344Z,49.10
2022-09-17T19:39:48.289Z,49.37
2022-09-17T19:41:50.087Z,49.56
2022-09-17T19:43:55.511Z,49.57
2022-09-17T19:46:15.923Z,49.53
2022-09-17T19:48:25.155Z,49.50
2022-09-17T19:50:30.241Z,49.43
2022-09-17T19:52:31.691Z,49.65
2022-09-17T19:54:36.641Z,49.68
2022-09-17T19:56:56.277Z,49.65
2022-09-17T19:59:08.233Z,49.73
2022-09-17T20:01:25.235Z,49.80
2022-09-17T20:03:29.764Z,49.74
2022-09-17T20:05:37.945Z,49.61
2022-09-17T20:07:39.472Z,49.99
2022-09-17T20:09:40.952Z,49.73
2022-09-17T20:14:19.692Z,49.98
2022-09-17T20:16:22.344Z,50.19
2022-09-17T20:18:26.267Z,49.90
2022-09-17T20:20:34.610Z,49.79
2022-09-17T20:22:37.867Z,50.17
2022-09-17T20:24:39.739Z,49.90
2022-09-17T20:26:58.976Z,50.11
2022-09-17T20:29:19.485Z,50.00
2022-09-17T20:34:10.877Z,50.39
2022-09-17T20:39:21.371Z,50.42
2022-09-17T20:41:43.195Z,50.47
2022-09-17T20:43:49.779Z,50.10
2022-09-17T20:45:55.488Z,50.38
2022-09-17T20:47:57.647Z,50.36
2022-09-17T20:50:26.220Z,50.47
2022-09-17T20:52:29.659Z,50.30
2022-09-17T20:54:31.178Z,50.46
2022-09-17T20:56:37.874Z,50.56
2022-09-17T20:58:48.495Z,50.37
2022-09-17T21:00:50.511Z,50.47
2022-09-17T21:02:54.321Z,50.39
2022-09-17T21:04:55.926Z,50.45
2022-09-17T21:07:00.032Z,50.47
2022-09-17T21:09:04.376Z,50.39
2022-09-17T21:11:05.968Z,50.54
2022-09-17T21:13:08.123Z,50.57
2022-09-17T21:15:14.052Z,50.38
2022-09-17T21:17:15.722Z,50.26
2022-09-17T21:19:17.513Z,50.30
2022-09-17T21:21:19.264Z,50.60
2022-09-17T21:23:33.640Z,50.66
2022-09-17T21:25:35.575Z,50.67
2022-09-17T21:27:38.134Z,50.67
2022-09-17T21:29:40.986Z,50.55
2022-09-17T21:31:43.006Z,50.47
2022-09-17T21:33:46.015Z,50.47
2022-09-17T21:35:51.162Z,50.61
2022-09-17T21:37:52.787Z,50.53
2022-09-17T21:39:54.723Z,50.63
2022-09-17T21:42:22.962Z,50.68
2022-09-17T21:44:27.428Z,50.70
2022-09-17T21:46:37.448Z,50.69
2022-09-17T21:48:45.281Z,50.67
2022-09-17T21:50:46.998Z,50.69
2022-09-17T21:52:48.575Z,50.89
2022-09-17T21:54:51.477Z,50.69
2022-09-17T21:57:02.196Z,50.79
2022-09-17T21:59:06.306Z,50.78
2022-09-17T22:01:19.813Z,50.86
2022-09-17T22:03:21.854Z,50.73
2022-09-17T22:05:23.488Z,50.83
2022-09-17T22:07:25.964Z,50.71
2022-09-17T22:09:29.780Z,50.93
2022-09-17T22:11:36.430Z,50.86
2022-09-17T22:13:38.529Z,50.77
2022-09-17T22:15:40.226Z,50.84
2022-09-17T22:17:42.801Z,50.86
2022-09-17T22:19:44.481Z,50.94
2022-09-17T22:21:48.635Z,51.05
2022-09-17T22:23:53.109Z,50.80
2022-09-17T22:26:04.847Z,50.90
2022-09-17T22:28:20.600Z,51.08
2022-09-17T22:30:24.310Z,51.11
2022-09-17T22:32:25.940Z,51.10
2022-09-17T22:34:27.633Z,50.86
2022-09-17T22:36:29.935Z,50.92
2022-09-17T22:38:41.456Z,51.03
2022-09-17T22:40:43.227Z,51.17
2022-09-17T22:42:44.766Z,50.77
2022-09-17T22:44:46.626Z,51.07
2022-09-17T22:46:50.653Z,51.08
2022-09-17T22:48:52.758Z,51.17
2022-09-17T22:51:03.629Z,51.39
2022-09-17T22:53:05.216Z,51.06
2022-09-17T22:55:06.895Z,51.11
2022-09-17T22:57:08.573Z,50.95
2022-09-17T22:59:10.843Z,51.04
2022-09-17T23:01:23.443Z,51.07
2022-09-17T23:03:30.775Z,51.08
2022-09-17T23:05:32.363Z,51.15
2022-09-17T23:07:34.155Z,51.13
2022-09-17T23:09:35.677Z,51.18
2022-09-17T23:11:39.071Z,51.42
2022-09-17T23:13:40.842Z,51.19
2022-09-17T23:15:42.520Z,51.32
2022-09-17T23:17:46.172Z,51.20
2022-09-17T23:19:49.093Z,51.13
2022-09-17T23:21:51.143Z,51.31
2022-09-17T23:23:52.993Z,51.55
2022-09-17T23:26:03.844Z,51.45
2022-09-17T23:28:05.451Z,51.37
2022-09-17T23:30:07.695Z,51.22
2022-09-17T23:32:09.395Z,51.47
2022-09-17T23:34:11.233Z,51.43
2022-09-17T23:36:16.328Z,51.49
2022-09-17T23:38:17.983Z,51.38
2022-09-17T23:40:21.952Z,51.60
2022-09-17T23:42:23.673Z,51.27
2022-09-17T23:44:25.351Z,51.51
2022-09-17T23:46:29.705Z,51.37
2022-09-17T23:48:34.638Z,51.54
2022-09-17T23:50:36.177Z,51.57
2022-09-17T23:52:37.830Z,51.60
2022-09-17T23:54:39.459Z,51.55
2022-09-17T23:56:41.381Z,51.58
2022-09-17T23:58:43.158Z,51.63
